createdAt,value
2023-03-29T00:12:03.141Z,2.16
2023-03-29T00:27:05.194Z,2.14
2023-03-29T00:42:09.436Z,2.34
2023-03-29T00:57:16.236Z,2.14
2023-03-29T01:12:23.755Z,2.26
2023-03-29T01:28:04.162Z,1.97
2023-03-29T01:43:30.945Z,1.96
2023-03-29T01:58:36.797Z,2.02
2023-03-29T02:13:38.522Z,2.03
2023-03-29T02:28:40.986Z,1.87
2023-03-29T02:43:44.801Z,1.74
2023-03-29T02:58:46.716Z,2.57
2023-03-29T03:13:48.463Z,1.88
2023-03-29T03:28:50.184Z,1.54
2023-03-29T03:43:52.328Z,1.30
2023-03-29T03:58:54.171Z,1.43
2023-03-29T04:13:57.689Z,1.51
2023-03-29T04:28:59.427Z,1.83
2023-03-29T04:44:02.700Z,7.41
2023-03-29T04:59:04.544Z,5.42
2023-03-29T05:14:07.458Z,4.17
2023-03-29T05:29:09.320Z,3.52
2023-03-29T05:44:11.233Z,3.67
2023-03-29T05:59:13.892Z,3.48
2023-03-29T06:14:15.824Z,3.22
2023-03-29T06:29:17.643Z,3.57
2023-03-29T06:44:19.543Z,3.33
2023-03-29T06:59:21.521Z,3.84
2023-03-29T07:14:26.508Z,4.41
2023-03-29T07:29:29.008Z,4.38
2023-03-29T07:44:30.997Z,4.75
2023-03-29T07:59:32.942Z,6.08
2023-03-29T08:14:36.245Z,7.92
2023-03-29T08:29:38.270Z,8.41
2023-03-29T08:44:45.993Z,9.08
2023-03-29T08:59:52.791Z,9.35
2023-03-29T09:15:08.787Z,8.96
2023-03-29T09:30:26.007Z,10.59
2023-03-29T09:45:28.142Z,10.27
2023-03-29T10:00:30.244Z,9.87
2023-03-29T10:15:32.603Z,9.40
2023-03-29T10:30:40.293Z,9.29
2023-03-29T10:45:42.577Z,8.98
2023-03-29T11:00:51.171Z,9.48
2023-03-29T11:16:01.936Z,8.97
2023-03-29T11:31:13.462Z,9.16
2023-03-29T11:46:28.834Z,9.07
2023-03-29T12:01:36.797Z,9.51
2023-03-29T12:16:50.265Z,9.97
2023-03-29T12:32:11.637Z,10.10
2023-03-29T12:47:23.850Z,10.02
2023-03-29T13:02:35.006Z,10.11
2023-03-29T13:18:10.951Z,10.72
2023-03-29T13:33:58.362Z,9.52
2023-03-29T13:49:13.267Z,10.20
2023-03-29T14:04:24.071Z,10.11
2023-03-29T14:19:34.639Z,10.12
2023-03-29T14:34:36.651Z,10.20
2023-03-29T14:49:38.686Z,10.20
2023-03-29T15:04:41.671Z,10.28
2023-03-29T15:19:46.417Z,10.11
2023-03-29T15:34:59.267Z,9.26
2023-03-29T15:50:01.502Z,8.54
2023-03-29T16:05:03.441Z,7.99
2023-03-29T16:20:06.054Z,8.13
2023-03-29T16:35:29.194Z,8.19
2023-03-29T16:50:31.184Z,8.16
2023-03-29T17:05:38.119Z,7.90
2023-03-29T17:20:40.537Z,8.23
2023-03-29T17:35:44.504Z,8.07
2023-03-29T17:50:48.943Z,8.12
2023-03-29T18:05:51.347Z,7.89
2023-03-29T18:20:53.694Z,7.92
2023-03-29T18:35:55.944Z,7.77
2023-03-29T18:50:58.696Z,7.73
2023-03-29T19:06:02.195Z,7.86
2023-03-29T19:21:05.876Z,7.75
2023-03-29T19:36:08.132Z,7.53
2023-03-29T19:51:10.275Z,7.54
2023-03-29T20:06:12.169Z,7.85
2023-03-29T20:21:17.023Z,7.77
2023-03-29T20:36:23.262Z,7.83
2023-03-29T20:51:32.089Z,7.83
2023-03-29T21:06:35.112Z,7.83
2023-03-29T21:21:37.103Z,7.76
2023-03-29T21:36:39.902Z,7.71
2023-03-29T21:51:41.817Z,7.58
2023-03-29T22:06:43.709Z,7.42
2023-03-29T22:21:46.117Z,7.41
2023-03-29T22:36:47.938Z,7.27
2023-03-29T22:51:49.898Z,7.19
2023-03-29T23:06:51.844Z,7.26
2023-03-29T23:21:53.733Z,7.37
2023-03-29T23:36:55.890Z,7.26
2023-03-29T23:52:00.250Z,6.97
